Time;durP1;ratioP1;P1;durP2;ratioP2;P2;SDS_P1;SDS_P2;PMS_P1;PMS_P2;Temp;Humidity;BMP_temperature;BMP_pressure;BME280_temperature;BME280_humidity;BME280_pressure;Samples;Min_cycle;Max_cycle;Signal;HPM_P1;HPM_P2
2022/06/30 00:00:09;;;;;;;;;0.00;0.00;;;;;22.33;46.47;100841.28;5102978;27;45233;-69
2022/06/30 00:02:34;;;;;;;;;0.00;0.00;;;;;22.28;46.12;100838.06;5102893;27;45250;-69
2022/06/30 00:04:59;;;;;;;;;0.00;0.00;;;;;22.28;46.44;100829.03;5097333;27;47021;-69
2022/06/30 00:07:25;;;;;;;;;0.50;0.00;;;;;22.26;46.25;100842.75;5102903;27;45232;-69
2022/06/30 00:09:50;;;;;;;;;0.00;0.00;;;;;22.21;46.34;100845.81;5103077;27;45218;-69
2022/06/30 00:12:15;;;;;;;;;0.00;0.00;;;;;22.18;46.73;100854.22;5102929;27;45457;-68
2022/06/30 00:14:41;;;;;;;;;0.00;0.00;;;;;22.18;46.46;100851.50;5102232;27;50062;-68
2022/06/30 00:17:07;;;;;;;;;0.25;0.00;;;;;22.16;46.26;100852.63;5102634;27;45317;-69
2022/06/30 00:19:34;;;;;;;;;0.00;0.00;;;;;22.13;46.40;100853.72;5095970;27;45305;-69
2022/06/30 00:22:04;;;;;;;;;0.50;0.00;;;;;22.12;45.81;100857.44;5097246;27;45439;-68
2022/06/30 00:24:29;;;;;;;;;0.00;0.00;;;;;22.12;46.20;100867.44;5102568;27;46217;-68
2022/06/30 00:26:55;;;;;;;;;0.00;0.00;;;;;22.04;46.38;100851.75;5102404;27;45144;-69
2022/06/30 00:29:20;;;;;;;;;0.00;0.00;;;;;22.04;46.30;100850.91;5098346;27;45377;-68
2022/06/30 00:31:46;;;;;;;;;0.00;0.00;;;;;22.00;46.23;100852.97;5095759;27;45220;-68
2022/06/30 00:34:11;;;;;;;;;0.00;0.00;;;;;22.00;45.89;100866.56;5102437;27;47082;-68
2022/06/30 00:36:36;;;;;;;;;0.00;0.00;;;;;21.97;45.98;100872.25;5101962;27;53023;-68
2022/06/30 00:39:02;;;;;;;;;0.00;0.00;;;;;21.94;45.71;100870.63;5102626;27;45270;-68
2022/06/30 00:41:28;;;;;;;;;0.00;0.00;;;;;21.94;45.45;100876.06;5102058;27;45392;-68
2022/06/30 00:43:53;;;;;;;;;0.00;0.00;;;;;21.90;45.82;100870.97;5102524;27;46149;-68
2022/06/30 00:46:18;;;;;;;;;0.50;0.50;;;;;21.84;45.68;100875.91;5099855;27;48137;-68
2022/06/30 00:48:44;;;;;;;;;0.00;0.00;;;;;21.84;45.94;100878.63;5102357;27;45536;-68
2022/06/30 00:51:10;;;;;;;;;1.00;1.00;;;;;21.83;45.93;100867.88;5100824;27;45808;-68
2022/06/30 00:53:38;;;;;;;;;0.00;0.00;;;;;21.78;46.30;100873.66;5102043;27;47040;-68
2022/06/30 00:56:04;;;;;;;;;2.00;0.00;;;;;21.73;46.36;100875.88;5101960;27;45534;-68
2022/06/30 00:58:40;;;;;;;;;0.25;0.25;;;;;21.69;46.11;100860.81;5102330;27;45373;-68
2022/06/30 01:01:07;;;;;;;;;0.00;0.00;;;;;21.68;46.10;100858.22;5101605;27;45643;-68
2022/06/30 01:03:33;;;;;;;;;0.00;0.00;;;;;21.65;46.15;100851.16;5096657;27;45489;-68
2022/06/30 01:06:03;;;;;;;;;0.00;0.00;;;;;21.62;46.86;100840.53;5100914;27;45472;-68
2022/06/30 01:08:33;;;;;;;;;0.50;0.00;;;;;21.55;46.56;100840.16;5102236;27;45257;-68
2022/06/30 01:13:48;;;;;;;;;1.00;1.00;;;;;21.52;46.84;100845.81;5101928;27;45452;-68
2022/06/30 01:16:13;;;;;;;;;1.00;1.00;;;;;21.46;46.88;100841.66;5100945;27;45330;-68
2022/06/30 01:18:39;;;;;;;;;1.00;1.00;;;;;21.45;46.83;100845.38;5101832;27;45282;-68
2022/06/30 01:21:04;;;;;;;;;1.00;0.00;;;;;21.45;47.49;100856.25;5097632;27;45771;-68
2022/06/30 01:23:30;;;;;;;;;0.75;0.75;;;;;21.45;46.98;100847.22;5100413;27;45345;-68
2022/06/30 01:25:55;;;;;;;;;1.00;1.00;;;;;21.43;47.21;100849.19;5101651;27;45273;-68
2022/06/30 01:28:21;;;;;;;;;0.25;0.25;;;;;21.41;47.13;100843.03;5101892;27;45363;-68
2022/06/30 01:30:46;;;;;;;;;1.75;1.00;;;;;21.38;47.78;100835.09;5095076;27;45385;-68
2022/06/30 01:33:12;;;;;;;;;0.75;0.75;;;;;21.25;47.49;100816.16;5101490;27;45281;-68
2022/06/30 01:35:38;;;;;;;;;0.00;0.00;;;;;21.30;47.69;100841.13;5101604;27;45252;-68
2022/06/30 01:38:03;;;;;;;;;1.00;1.00;;;;;21.27;47.90;100835.94;5101617;27;45296;-68
2022/06/30 01:40:33;;;;;;;;;0.75;0.00;;;;;21.30;47.61;100835.72;5101511;27;45321;-68
2022/06/30 01:43:00;;;;;;;;;1.00;1.00;;;;;21.24;47.74;100831.59;5101090;27;46643;-68
2022/06/30 01:45:25;;;;;;;;;0.00;0.00;;;;;21.22;48.08;100846.28;5101162;27;45644;-68
2022/06/30 01:47:51;;;;;;;;;0.50;0.00;;;;;21.20;48.27;100856.38;5100814;27;45282;-68
2022/06/30 01:50:23;;;;;;;;;1.00;1.00;;;;;21.21;48.28;100845.41;5100638;27;45366;-69
2022/06/30 01:52:48;;;;;;;;;0.25;0.25;;;;;21.17;47.92;100854.75;5096054;27;46298;-68
2022/06/30 01:55:14;;;;;;;;;1.00;1.00;;;;;21.20;47.67;100857.25;5101518;27;45308;-68
2022/06/30 01:57:40;;;;;;;;;0.50;0.00;;;;;21.20;48.06;100840.06;5101292;27;45451;-68
2022/06/30 02:00:10;;;;;;;;;1.00;1.00;;;;;21.20;47.83;100845.50;5099990;27;45370;-68
2022/06/30 02:02:36;;;;;;;;;0.00;0.00;;;;;21.18;47.92;100839.34;5101059;27;45310;-68
2022/06/30 02:05:02;;;;;;;;;0.00;0.00;;;;;21.20;48.04;100856.38;5095824;27;45356;-68
2022/06/30 02:07:28;;;;;;;;;1.50;1.00;;;;;21.19;48.17;100860.06;5100001;27;45409;-68
2022/06/30 02:09:53;;;;;;;;;0.25;0.25;;;;;21.18;48.34;100856.47;5093998;27;45309;-68
2022/06/30 02:15:06;;;;;;;;;2.00;1.00;;;;;21.14;48.55;100855.00;5090003;27;45388;-68
2022/06/30 02:17:32;;;;;;;;;1.00;0.00;;;;;21.10;49.25;100851.66;5100737;27;45133;-68
2022/06/30 02:19:58;;;;;;;;;1.75;1.00;;;;;21.03;48.84;100841.34;5091798;27;45243;-68
2022/06/30 02:22:24;;;;;;;;;1.75;1.00;;;;;21.04;49.23;100838.53;5097356;27;45299;-68
2022/06/30 02:24:49;;;;;;;;;1.75;1.00;;;;;21.04;49.27;100835.81;5100936;27;45428;-68
2022/06/30 02:27:14;;;;;;;;;1.00;1.00;;;;;21.02;49.15;100828.78;5100809;27;45408;-68
2022/06/30 02:29:40;;;;;;;;;1.00;1.00;;;;;21.00;49.39;100834.31;5093172;27;48167;-68
2022/06/30 02:32:06;;;;;;;;;1.00;1.00;;;;;21.00;49.22;100844.28;5097260;27;46334;-68
2022/06/30 02:34:31;;;;;;;;;2.00;1.00;;;;;20.94;49.46;100845.63;5100810;27;45340;-68
2022/06/30 02:36:57;;;;;;;;;1.00;1.00;;;;;20.86;49.03;100839.91;5100868;27;45281;-68
2022/06/30 02:39:22;;;;;;;;;1.00;1.00;;;;;20.83;49.48;100835.59;5100570;27;45283;-68
2022/06/30 02:41:48;;;;;;;;;0.75;0.75;;;;;20.84;49.49;100850.00;5099224;27;45331;-68
2022/06/30 02:44:13;;;;;;;;;2.25;2.00;;;;;20.80;49.31;100843.94;5100412;27;45458;-68
2022/06/30 02:46:38;;;;;;;;;1.00;0.00;;;;;20.80;49.58;100848.47;5098930;27;45240;-68
2022/06/30 02:49:04;;;;;;;;;1.00;1.00;;;;;20.79;49.36;100852.19;5100514;27;45529;-68
2022/06/30 02:51:30;;;;;;;;;2.00;1.00;;;;;20.80;49.33;100865.66;5098635;27;49942;-69
2022/06/30 02:53:55;;;;;;;;;0.25;0.25;;;;;20.77;49.43;100857.72;5100666;27;45638;-69
2022/06/30 02:56:20;;;;;;;;;1.00;1.00;;;;;20.80;49.75;100860.22;5100469;27;45251;-68
2022/06/30 02:58:47;;;;;;;;;0.50;0.50;;;;;20.79;49.28;100842.19;5100465;27;45445;-68
2022/06/30 03:01:13;;;;;;;;;0.50;0.50;;;;;20.75;49.83;100840.72;5099963;27;45471;-68
2022/06/30 03:03:38;;;;;;;;;1.00;1.00;;;;;20.77;49.61;100837.88;5091497;27;45362;-68
2022/06/30 03:06:04;;;;;;;;;1.00;1.00;;;;;20.80;49.44;100853.91;5095590;27;45377;-68
2022/06/30 03:08:29;;;;;;;;;1.00;1.00;;;;;20.77;49.77;100862.28;5100496;27;45451;-68
2022/06/30 03:10:54;;;;;;;;;1.50;1.50;;;;;20.75;49.40;100865.13;5100891;27;51503;-68
2022/06/30 03:13:20;;;;;;;;;0.50;0.50;;;;;20.69;49.82;100874.56;5103635;27;53949;-68
2022/06/30 03:15:45;;;;;;;;;0.75;0.75;;;;;20.66;49.39;100863.91;5103159;27;45309;-68
2022/06/30 03:18:10;;;;;;;;;1.00;1.00;;;;;20.68;49.53;100853.84;5103821;27;45400;-68
2022/06/30 03:20:36;;;;;;;;;1.00;1.00;;;;;20.66;49.55;100861.22;5091599;27;46243;-68
2022/06/30 03:23:01;;;;;;;;;1.00;1.00;;;;;20.68;49.22;100844.81;5103712;27;45405;-68
2022/06/30 03:25:26;;;;;;;;;2.00;1.00;;;;;20.70;49.41;100840.19;5103729;27;45472;-68
2022/06/30 03:27:51;;;;;;;;;2.00;2.00;;;;;20.75;49.39;100834.41;5103623;27;45421;-68
2022/06/30 03:30:17;;;;;;;;;1.75;1.75;;;;;20.76;49.18;100836.13;5102920;27;45421;-68
2022/06/30 03:32:42;;;;;;;;;2.00;1.00;;;;;20.75;49.55;100837.09;5103623;27;45388;-68
2022/06/30 03:35:09;;;;;;;;;1.75;1.00;;;;;20.72;49.33;100844.50;5103409;27;45374;-68
2022/06/30 03:37:34;;;;;;;;;0.25;0.25;;;;;20.75;49.15;100858.81;5103595;27;45308;-68
2022/06/30 03:39:59;;;;;;;;;2.00;1.00;;;;;20.77;49.59;100874.00;5102201;27;46296;-68
2022/06/30 03:42:25;;;;;;;;;3.00;0.75;;;;;20.71;50.07;100861.78;5103090;27;45472;-68
2022/06/30 03:44:50;;;;;;;;;2.00;1.00;;;;;20.73;49.61;100884.22;5103090;27;45592;-69
2022/06/30 03:47:16;;;;;;;;;1.75;1.75;;;;;20.66;49.56;100876.63;5102286;27;51905;-68
2022/06/30 03:49:41;;;;;;;;;1.25;1.25;;;;;20.69;49.95;100868.28;5102796;27;45414;-68
2022/06/30 03:52:07;;;;;;;;;1.00;1.00;;;;;20.69;49.54;100857.41;5103031;27;45443;-68
2022/06/30 03:54:33;;;;;;;;;2.25;2.00;;;;;20.70;49.66;100868.16;5103022;27;45551;-68
2022/06/30 03:56:58;;;;;;;;;2.00;2.00;;;;;20.66;49.74;100880.19;5103220;27;45518;-68
2022/06/30 03:59:24;;;;;;;;;1.75;1.75;;;;;20.63;49.57;100877.72;5096310;27;45934;-68
2022/06/30 04:01:49;;;;;;;;;2.50;1.00;;;;;20.63;50.02;100888.59;5101772;27;45389;-69
2022/06/30 04:04:14;;;;;;;;;1.00;1.00;;;;;20.62;49.70;100892.22;5097476;27;45480;-69
2022/06/30 04:06:40;;;;;;;;;5.00;1.75;;;;;20.58;50.09;100885.31;5103013;27;45570;-68
2022/06/30 04:09:05;;;;;;;;;1.75;1.75;;;;;20.59;49.84;100895.16;5102223;27;62648;-68
2022/06/30 04:11:31;;;;;;;;;2.25;2.00;;;;;20.56;50.12;100884.53;5101908;27;45332;-68
2022/06/30 04:13:56;;;;;;;;;1.50;1.50;;;;;20.54;50.14;100871.06;5102710;27;45375;-68
2022/06/30 04:16:22;;;;;;;;;2.75;2.00;;;;;20.58;50.44;100881.72;5102684;27;47670;-68
2022/06/30 04:18:47;;;;;;;;;3.00;1.25;;;;;20.57;50.95;100883.56;5102342;27;50433;-68
2022/06/30 04:21:15;;;;;;;;;3.00;2.00;;;;;20.52;51.74;100877.59;5090565;27;45271;-68
2022/06/30 04:23:41;;;;;;;;;1.75;1.75;;;;;20.54;51.48;100895.47;5102693;27;45297;-68
2022/06/30 04:26:06;;;;;;;;;2.25;1.25;;;;;20.49;51.42;100894.94;5102835;27;45338;-68
2022/06/30 04:28:31;;;;;;;;;1.00;1.00;;;;;20.48;51.88;100897.75;5102478;27;45296;-68
2022/06/30 04:33:40;;;;;;;;;1.75;1.75;;;;;20.37;51.99;100906.69;5101507;27;45427;-68
2022/06/30 04:36:06;;;;;;;;;3.00;1.00;;;;;20.34;52.41;100912.31;5102568;27;45563;-68
2022/06/30 04:38:31;;;;;;;;;1.75;1.75;;;;;20.32;52.13;100911.56;5102228;27;46464;-68
2022/06/30 04:43:40;;;;;;;;;2.50;2.50;;;;;20.26;53.50;100902.00;5102219;27;45230;-68
2022/06/30 04:46:05;;;;;;;;;1.50;1.50;;;;;20.21;53.87;100914.16;5101936;27;45293;-68
2022/06/30 04:48:30;;;;;;;;;2.00;2.00;;;;;20.13;53.76;100912.84;5100364;27;46077;-68
2022/06/30 04:50:56;;;;;;;;;2.00;1.25;;;;;20.09;54.38;100900.47;5101816;27;50735;-68
2022/06/30 04:53:21;;;;;;;;;1.00;1.00;;;;;20.06;54.48;100887.16;5101954;27;50245;-68
2022/06/30 04:55:46;;;;;;;;;3.00;1.00;;;;;20.05;55.30;100874.59;5102260;27;45495;-68
2022/06/30 04:58:12;;;;;;;;;3.00;2.00;;;;;20.06;55.03;100886.28;5101839;27;46072;-68
2022/06/30 05:00:37;;;;;;;;;3.00;3.00;;;;;20.01;54.97;100878.47;5101982;27;45369;-68
2022/06/30 05:03:02;;;;;;;;;2.50;2.25;;;;;19.92;55.09;100860.16;5100022;27;45326;-68
2022/06/30 05:05:28;;;;;;;;;1.25;1.25;;;;;19.87;55.27;100857.78;5101925;27;45228;-68
2022/06/30 05:07:53;;;;;;;;;2.75;2.75;;;;;19.82;55.40;100853.66;5101848;27;45380;-68
2022/06/30 05:10:19;;;;;;;;;2.00;2.00;;;;;19.76;55.60;100849.50;5101858;27;45380;-68
2022/06/30 05:12:44;;;;;;;;;1.25;1.25;;;;;19.72;55.41;100848.84;5101689;27;45297;-68
2022/06/30 05:15:10;;;;;;;;;2.50;2.00;;;;;19.69;56.19;100850.88;5101650;27;45373;-68
2022/06/30 05:17:35;;;;;;;;;3.00;2.00;;;;;19.63;56.37;100858.47;5101662;27;46391;-68
2022/06/30 05:20:02;;;;;;;;;1.00;1.00;;;;;19.61;56.81;100864.94;5091280;27;45404;-68
2022/06/30 05:22:28;;;;;;;;;2.25;2.25;;;;;19.54;56.73;100866.34;5099271;27;45326;-68
2022/06/30 05:27:37;;;;;;;;;2.00;2.00;;;;;19.45;56.85;100884.09;5088333;27;45372;-69
2022/06/30 05:30:03;;;;;;;;;4.00;2.75;;;;;19.47;57.32;100889.41;5090903;27;45413;-68
2022/06/30 05:32:28;;;;;;;;;3.00;3.00;;;;;19.41;57.71;100891.56;5099453;27;45321;-68
2022/06/30 05:34:54;;;;;;;;;1.00;1.00;;;;;19.44;57.47;100895.88;5099245;27;45199;-68
2022/06/30 05:37:19;;;;;;;;;3.25;2.50;;;;;19.39;57.72;100898.03;5100610;27;45357;-68
2022/06/30 05:39:44;;;;;;;;;1.75;1.75;;;;;19.44;57.91;100896.75;5099484;27;48233;-68
2022/06/30 05:42:10;;;;;;;;;2.00;2.00;;;;;19.50;58.22;100900.03;5099610;27;51029;-68
2022/06/30 05:44:35;;;;;;;;;3.25;3.00;;;;;19.49;58.26;100896.44;5099732;27;45324;-68
2022/06/30 05:47:00;;;;;;;;;3.75;3.75;;;;;19.45;58.17;100897.63;5100886;27;46986;-70
2022/06/30 05:49:26;;;;;;;;;3.25;2.75;;;;;19.44;58.10;100906.69;5091863;27;45396;-69
2022/06/30 05:51:52;;;;;;;;;2.00;2.00;;;;;19.43;58.04;100910.41;5097980;27;45207;-68
2022/06/30 05:54:18;;;;;;;;;3.00;3.00;;;;;19.36;58.16;100906.34;5101412;27;45429;-69
2022/06/30 05:56:43;;;;;;;;;3.25;1.50;;;;;19.40;58.71;100916.00;5100988;27;46230;-69
2022/06/30 05:59:09;;;;;;;;;3.00;3.00;;;;;19.36;58.92;100909.94;5100203;27;45348;-69
2022/06/30 06:01:34;;;;;;;;;2.25;1.75;;;;;19.32;58.94;100915.66;5101083;27;45399;-69
2022/06/30 06:04:00;;;;;;;;;7.00;3.00;;;;;19.27;58.83;100897.00;5100980;27;45370;-69
2022/06/30 06:06:25;;;;;;;;;4.75;3.00;;;;;19.28;59.03;100900.56;5099502;27;46007;-69
2022/06/30 06:08:50;;;;;;;;;2.25;2.25;;;;;19.23;59.08;100898.19;5100699;27;45395;-70
2022/06/30 06:11:16;;;;;;;;;5.50;3.00;;;;;19.19;59.02;100894.81;5101183;27;45737;-69
2022/06/30 06:13:41;;;;;;;;;3.00;2.00;;;;;19.19;59.25;100894.81;5100518;27;45471;-68
2022/06/30 06:16:06;;;;;;;;;2.00;2.00;;;;;19.25;59.66;100897.09;5094092;27;46295;-69
2022/06/30 06:18:32;;;;;;;;;3.00;3.00;;;;;19.25;59.79;100896.25;5100570;27;45372;-69
2022/06/30 06:20:58;;;;;;;;;4.00;3.75;;;;;19.29;59.88;100900.47;5098808;27;45312;-69
2022/06/30 06:23:23;;;;;;;;;2.25;2.25;;;;;19.31;59.78;100889.53;5100867;27;45385;-69
2022/06/30 06:25:48;;;;;;;;;4.00;3.75;;;;;19.33;59.42;100890.31;5100542;27;45346;-69
2022/06/30 06:30:58;;;;;;;;;3.00;3.00;;;;;19.34;59.58;100898.31;5086297;27;45303;-69
2022/06/30 06:33:23;;;;;;;;;4.00;4.00;;;;;19.35;59.72;100896.50;5099710;27;45479;-70
2022/06/30 06:35:48;;;;;;;;;3.50;3.50;;;;;19.34;59.52;100905.59;5100494;27;45302;-69
2022/06/30 06:38:14;;;;;;;;;7.75;5.75;;;;;19.32;59.90;100911.09;5100446;27;45330;-69
2022/06/30 06:40:39;;;;;;;;;5.25;4.00;;;;;19.27;60.13;100893.44;5098171;27;45535;-69
2022/06/30 06:43:04;;;;;;;;;3.00;3.00;;;;;19.27;60.48;100897.00;5095641;27;45368;-69
2022/06/30 06:45:30;;;;;;;;;6.25;4.50;;;;;19.28;60.45;100906.88;5102967;27;49380;-69
2022/06/30 06:47:55;;;;;;;;;2.50;2.50;;;;;19.28;59.93;100923.13;5099822;27;45425;-69
2022/06/30 06:50:20;;;;;;;;;3.00;3.00;;;;;19.31;60.35;100928.31;5101137;27;45548;-69
2022/06/30 06:52:46;;;;;;;;;3.00;3.00;;;;;19.31;60.37;100931.03;5098299;27;45342;-69
2022/06/30 06:55:11;;;;;;;;;5.25;4.00;;;;;19.31;60.57;100935.56;5096919;27;58761;-69
2022/06/30 06:57:39;;;;;;;;;4.75;4.00;;;;;19.33;60.33;100949.84;5101417;27;45278;-69
2022/06/30 07:00:07;;;;;;;;;3.25;3.25;;;;;19.31;60.36;100947.28;5102591;27;45606;-67
2022/06/30 07:02:32;;;;;;;;;4.00;4.00;;;;;19.31;60.44;100954.50;5096154;27;45392;-68
2022/06/30 07:04:58;;;;;;;;;5.50;3.00;;;;;19.32;60.58;100950.84;5102523;27;45394;-68
2022/06/30 07:07:23;;;;;;;;;4.00;4.00;;;;;19.25;59.81;100956.66;5099159;27;45464;-68
2022/06/30 07:09:48;;;;;;;;;5.25;3.00;;;;;19.24;59.98;100957.63;5103964;27;45308;-69
2022/06/30 07:12:14;;;;;;;;;4.50;3.50;;;;;19.24;60.07;100976.56;5095309;27;45221;-70
2022/06/30 07:14:39;;;;;;;;;4.00;3.25;;;;;19.20;60.49;100960.63;5098293;27;45398;-70
2022/06/30 07:17:05;;;;;;;;;3.00;2.25;;;;;19.18;60.60;100962.56;5103158;27;45298;-70
2022/06/30 07:19:30;;;;;;;;;4.50;4.50;;;;;19.15;60.97;100957.34;5100258;27;45417;-71
2022/06/30 07:21:55;;;;;;;;;4.75;4.75;;;;;19.15;61.07;100965.47;5097709;27;45633;-70
2022/06/30 07:24:21;;;;;;;;;5.00;4.00;;;;;19.19;60.78;100972.41;5100967;27;47069;-70
2022/06/30 07:26:46;;;;;;;;;5.25;4.25;;;;;19.22;60.62;100974.94;5104126;27;45628;-70
2022/06/30 07:29:12;;;;;;;;;4.25;3.75;;;;;19.14;60.67;100959.19;5095219;27;45395;-70
2022/06/30 07:31:38;;;;;;;;;3.50;3.00;;;;;19.11;60.93;100951.28;5103948;27;45491;-70
2022/06/30 07:34:03;;;;;;;;;5.00;4.00;;;;;19.13;60.86;100952.03;5100250;27;45748;-70
2022/06/30 07:36:29;;;;;;;;;10.00;6.00;;;;;19.18;60.87;100951.75;5104011;27;45426;-70
2022/06/30 07:38:54;;;;;;;;;4.50;4.50;;;;;19.15;61.22;100939.28;5105184;27;45680;-70
2022/06/30 07:41:20;;;;;;;;;3.75;3.75;;;;;19.10;60.88;100933.31;5102312;27;45568;-70
2022/06/30 07:43:47;;;;;;;;;6.00;4.00;;;;;19.14;61.60;100940.22;5101755;27;45802;-70
2022/06/30 07:46:14;;;;;;;;;3.00;3.00;;;;;19.11;61.63;100940.47;5102624;27;45960;-70
2022/06/30 07:48:40;;;;;;;;;3.75;3.50;;;;;19.09;60.97;100936.97;5104900;27;45461;-70
2022/06/30 07:51:06;;;;;;;;;4.75;4.75;;;;;19.11;61.75;100951.28;5103931;27;46478;-70
2022/06/30 07:53:31;;;;;;;;;6.50;4.75;;;;;19.10;61.84;100956.78;5104189;27;45465;-70
2022/06/30 07:55:56;;;;;;;;;4.25;3.75;;;;;19.11;61.42;100954.00;5104827;27;45333;-70
2022/06/30 07:58:22;;;;;;;;;4.50;4.00;;;;;19.10;61.64;100949.53;5099468;27;45350;-70
2022/06/30 08:00:47;;;;;;;;;3.50;3.50;;;;;19.10;61.61;100949.53;5100253;27;50423;-70
2022/06/30 08:03:12;;;;;;;;;3.50;2.00;;;;;19.14;61.25;100959.19;5100544;27;47213;-70
2022/06/30 08:05:38;;;;;;;;;3.25;2.75;;;;;19.10;61.38;100935.16;5101334;27;45301;-70
2022/06/30 08:08:03;;;;;;;;;6.25;6.00;;;;;19.16;61.29;100938.31;5101146;27;45467;-70
2022/06/30 08:10:29;;;;;;;;;3.25;3.25;;;;;19.08;61.36;100929.84;5100787;27;45885;-70
2022/06/30 08:12:54;;;;;;;;;4.00;4.00;;;;;19.18;61.35;100940.94;5101926;27;47399;-70
2022/06/30 08:15:20;;;;;;;;;4.50;3.75;;;;;19.19;61.59;100946.22;5101228;27;45832;-70
2022/06/30 08:17:45;;;;;;;;;3.00;3.00;;;;;18.92;61.78;100900.19;5099884;27;45863;-70
2022/06/30 08:20:10;;;;;;;;;4.50;4.50;;;;;19.16;61.31;100949.16;5099477;27;45786;-70
2022/06/30 08:22:36;;;;;;;;;4.00;4.00;;;;;19.15;61.83;100943.84;5101829;27;46263;-70
2022/06/30 08:25:02;;;;;;;;;3.00;2.50;;;;;19.05;61.56;100938.16;5101742;27;45424;-70
2022/06/30 08:27:28;;;;;;;;;3.75;2.00;;;;;18.97;61.25;100914.28;5099524;27;47141;-70
2022/06/30 08:29:53;;;;;;;;;4.00;2.25;;;;;18.92;60.98;100915.56;5100950;27;45622;-70
2022/06/30 08:32:19;;;;;;;;;2.75;2.75;;;;;19.00;61.25;100934.88;5097661;27;46715;-70
2022/06/30 08:34:44;;;;;;;;;4.00;3.00;;;;;18.93;61.36;100922.69;5092563;27;45308;-70
2022/06/30 08:37:10;;;;;;;;;3.25;3.25;;;;;18.91;61.84;100930.94;5100118;27;45221;-70
2022/06/30 08:42:21;;;;;;;;;3.00;3.00;;;;;18.91;60.89;100935.44;5089194;27;45739;-70
2022/06/30 08:47:48;;;;;;;;;5.00;5.00;;;;;18.98;61.16;100936.81;5077017;28;45454;-69
2022/06/30 08:50:16;;;;;;;;;3.00;3.00;;;;;18.92;61.21;100913.72;5096258;27;45391;-70
2022/06/30 08:52:47;;;;;;;;;3.00;3.00;;;;;18.98;61.54;100931.41;5101088;27;46831;-69
2022/06/30 08:55:16;;;;;;;;;3.50;2.00;;;;;18.92;61.59;100929.94;5101188;27;45405;-70
2022/06/30 08:57:43;;;;;;;;;2.25;2.00;;;;;18.93;61.32;100923.59;5098626;27;45425;-70
2022/06/30 09:00:10;;;;;;;;;3.00;1.50;;;;;18.95;60.75;100926.19;5093288;27;45457;-70
2022/06/30 09:02:36;;;;;;;;;5.25;4.00;;;;;18.95;60.39;100926.19;5096106;27;47705;-70
2022/06/30 09:05:01;;;;;;;;;2.00;2.00;;;;;18.90;61.03;100915.66;5095744;27;45477;-69
2022/06/30 09:07:28;;;;;;;;;2.00;1.00;;;;;18.87;61.08;100907.75;5092815;27;45417;-69
2022/06/30 09:09:54;;;;;;;;;3.00;2.00;;;;;18.82;61.38;100905.28;5087439;27;45389;-69
2022/06/30 09:12:20;;;;;;;;;2.00;2.00;;;;;18.86;61.42;100903.28;5085882;27;46278;-70
2022/06/30 09:14:47;;;;;;;;;3.75;2.75;;;;;18.78;61.56;100895.66;5100075;27;45465;-69
2022/06/30 09:17:24;;;;;;;;;1.00;1.00;;;;;18.75;60.88;100890.44;5096589;27;45519;-69
2022/06/30 09:20:00;;;;;;;;;3.50;1.75;;;;;18.82;60.99;100904.44;5098955;27;45639;-69
2022/06/30 09:22:26;;;;;;;;;3.00;2.00;;;;;18.85;61.37;100910.53;5100476;27;46477;-70
2022/06/30 09:25:01;;;;;;;;;1.75;1.75;;;;;18.80;61.50;100912.63;5099638;27;45730;-69
2022/06/30 09:27:29;;;;;;;;;3.00;2.50;;;;;18.81;61.36;100924.31;5095155;27;45403;-70
2022/06/30 09:29:55;;;;;;;;;2.75;2.75;;;;;18.81;61.23;100936.03;5088194;27;45369;-70
2022/06/30 09:32:21;;;;;;;;;3.50;3.00;;;;;18.83;62.07;100939.53;5098096;27;47269;-69
2022/06/30 09:34:49;;;;;;;;;1.25;1.25;;;;;18.76;61.64;100931.84;5100928;27;45450;-69
2022/06/30 09:37:24;;;;;;;;;5.75;1.75;;;;;18.69;62.07;100923.25;5091655;27;45420;-69
2022/06/30 09:39:51;;;;;;;;;2.75;2.00;;;;;18.77;61.89;100939.88;5100051;27;45492;-69
2022/06/30 09:42:36;;;;;;;;;2.00;2.00;;;;;18.75;61.59;100949.94;5098441;27;45994;-69
2022/06/30 09:45:02;;;;;;;;;3.50;2.25;;;;;18.72;62.11;100943.84;5097221;27;45471;-69
2022/06/30 09:47:27;;;;;;;;;2.75;1.25;;;;;18.69;61.92;100936.78;5094604;27;45524;-68
2022/06/30 09:49:54;;;;;;;;;3.25;2.50;;;;;18.66;62.07;100937.88;5095111;27;45365;-69
2022/06/30 09:52:24;;;;;;;;;3.50;3.00;;;;;18.67;62.61;100934.19;5099372;27;45760;-70
2022/06/30 09:55:07;;;;;;;;;5.00;3.00;;;;;18.58;62.96;100910.44;5096130;27;45511;-69
2022/06/30 09:57:43;;;;;;;;;6.00;3.75;;;;;18.67;62.72;100934.19;5101638;27;45598;-69
2022/06/30 10:00:10;;;;;;;;;3.00;3.00;;;;;18.66;62.87;100943.28;5094981;27;45553;-69
2022/06/30 10:02:41;;;;;;;;;2.25;2.25;;;;;18.67;62.44;100947.69;5097946;27;46658;-69
2022/06/30 10:05:08;;;;;;;;;2.25;2.25;;;;;18.62;62.74;100930.03;5098728;27;45313;-69
2022/06/30 10:07:35;;;;;;;;;5.25;2.25;;;;;18.56;62.56;100946.63;5098716;27;46737;-72
2022/06/30 10:10:04;;;;;;;;;3.00;3.00;;;;;18.50;62.26;100954.16;5086866;27;45409;-70
2022/06/30 10:12:30;;;;;;;;;2.00;1.50;;;;;18.52;62.40;100945.97;5098672;27;46254;-70
2022/06/30 10:14:56;;;;;;;;;1.75;1.75;;;;;18.32;62.54;100923.75;5099755;27;45413;-70
2022/06/30 10:17:24;;;;;;;;;2.00;1.75;;;;;18.46;62.91;100955.34;5099499;27;45582;-69
2022/06/30 10:19:52;;;;;;;;;4.75;3.25;;;;;18.45;63.01;100958.13;5097546;27;45361;-70
2022/06/30 10:22:19;;;;;;;;;1.75;1.75;;;;;18.41;62.55;100959.28;5099256;27;45459;-69
2022/06/30 10:24:46;;;;;;;;;2.75;2.75;;;;;18.46;63.07;100976.06;5099370;27;45441;-69
2022/06/30 10:27:12;;;;;;;;;3.75;3.25;;;;;18.39;62.98;100974.72;5099590;27;45380;-69
2022/06/30 10:29:40;;;;;;;;;2.50;1.75;;;;;18.45;62.61;100990.56;5099292;27;45376;-69
2022/06/30 10:32:14;;;;;;;;;1.25;1.25;;;;;18.37;63.04;100980.22;5095917;27;46090;-69
2022/06/30 10:34:46;;;;;;;;;1.00;1.00;;;;;18.38;63.29;100990.06;5094210;27;45543;-68
2022/06/30 10:37:53;;;;;;;;;2.75;2.00;;;;;18.34;63.41;100977.69;5095254;27;45527;-69
2022/06/30 10:40:28;;;;;;;;;3.00;2.75;;;;;18.39;62.89;100989.09;5084115;27;45519;-69
2022/06/30 10:42:58;;;;;;;;;7.25;2.25;;;;;18.36;62.65;100997.41;5098887;27;46650;-69
2022/06/30 10:45:26;;;;;;;;;2.00;2.00;;;;;18.29;62.76;100994.22;5092347;27;45438;-69
2022/06/30 10:47:55;;;;;;;;;3.00;2.00;;;;;18.26;62.73;100993.50;5098902;27;45301;-69
2022/06/30 10:50:31;;;;;;;;;1.75;1.75;;;;;18.24;63.10;101001.72;5089262;27;45578;-69
2022/06/30 10:52:57;;;;;;;;;3.50;2.00;;;;;18.26;63.68;101007.91;5097907;27;45418;-69
2022/06/30 10:55:22;;;;;;;;;2.75;2.00;;;;;18.16;63.45;100998.63;5094968;27;45638;-69
2022/06/30 10:58:08;;;;;;;;;1.75;1.75;;;;;18.22;63.57;101016.28;5099114;27;45374;-69
2022/06/30 11:00:46;;;;;;;;;2.75;2.25;;;;;18.18;64.05;101021.00;5095357;27;45453;-69
2022/06/30 11:03:30;;;;;;;;;2.00;2.00;;;;;18.17;64.14;101016.53;5098569;27;45510;-69
2022/06/30 11:06:10;;;;;;;;;2.75;2.75;;;;;18.09;64.44;101008.03;5096265;27;45436;-69
2022/06/30 11:08:57;;;;;;;;;5.25;4.25;;;;;18.17;63.82;101019.25;5099592;27;45725;-69
2022/06/30 11:11:22;;;;;;;;;4.50;4.50;;;;;18.19;64.46;101011.06;5096821;27;45412;-69
2022/06/30 11:14:00;;;;;;;;;3.25;3.25;;;;;18.20;64.44;101008.25;5087088;27;46698;-69
2022/06/30 11:16:25;;;;;;;;;2.75;2.50;;;;;18.19;64.09;101013.75;5099598;27;45532;-69
2022/06/30 11:18:51;;;;;;;;;2.25;2.00;;;;;18.18;63.64;101010.19;5099421;27;45202;-69
2022/06/30 11:21:16;;;;;;;;;4.25;3.75;;;;;18.19;63.58;101008.34;5095310;27;45278;-69
2022/06/30 11:23:47;;;;;;;;;4.75;2.75;;;;;18.25;64.22;101024.22;5098512;27;46249;-70
2022/06/30 11:29:00;;;;;;;;;3.50;2.50;;;;;18.26;63.96;101020.53;5097720;27;45688;-67
2022/06/30 11:31:31;;;;;;;;;4.25;4.25;;;;;18.15;64.47;101000.44;5098118;27;46133;-67
2022/06/30 11:34:15;;;;;;;;;5.00;3.75;;;;;18.27;64.13;101011.47;5103021;27;45921;-67
2022/06/30 11:36:43;;;;;;;;;5.50;4.25;;;;;18.24;64.70;100980.13;5103333;27;45413;-67
2022/06/30 11:39:14;;;;;;;;;3.75;3.75;;;;;18.28;64.40;100987.06;5102380;27;45388;-67
2022/06/30 11:41:54;;;;;;;;;1.50;1.50;;;;;18.20;64.34;100966.88;5102732;27;45468;-67
2022/06/30 11:44:37;;;;;;;;;2.25;1.50;;;;;18.33;63.91;100992.19;5100406;27;45465;-68
2022/06/30 11:47:09;;;;;;;;;4.00;2.25;;;;;18.33;64.11;100990.34;5086987;27;45760;-68